KLUL/LUL METAR and TAF weather

Enter ICAO airport designator
Station Type Date Time Source
KLUL METAR 2018/12/15 22:55 UTC NOAA

KLUL 152255Z AUTO 30005KT 10SM OVC016 11/09 A3004 RMK AO2 T01100085


Station Type Date Time Source
KLUL Decoded METAR 2018/12/15 22:55 UTC NOAA

Station name not available
Dec 15, 2018 - 05:55 PM EST / 2018.12.15 2255 UTC
Wind: from the WNW (300 degrees) at 6 MPH (5 KT):0
Visibility: 10 mile(s):0
Sky conditions: overcast
Temperature: 51.8 F (11.0 C)
Dew Point: 47.3 F (8.5 C)
Relative Humidity: 84%
Pressure (altimeter): 30.04 in. Hg (1017 hPa)
ob: KLUL 152255Z AUTO 30005KT 10SM OVC016 11/09 A3004 RMK AO2 T01100085
cycle: 23

Station Type Date Time Source
KLUL TAF UTC NOAA

Error!


Example: see airport list